createdAt,value
2024-01-19T00:00:52.168Z,72.23
2024-01-19T00:03:18.873Z,72.02
2024-01-19T00:05:45.780Z,72.13
2024-01-19T00:08:12.626Z,71.76
2024-01-19T00:10:39.469Z,72.04
2024-01-19T00:13:06.282Z,71.78
2024-01-19T00:15:39.431Z,72.63
2024-01-19T00:18:09.162Z,72.00
2024-01-19T00:20:35.927Z,72.13
2024-01-19T00:23:02.650Z,71.91
2024-01-19T00:25:29.274Z,72.76
2024-01-19T00:27:56.057Z,71.99
2024-01-19T00:30:22.756Z,72.02
2024-01-19T00:32:49.518Z,72.86
2024-01-19T00:35:17.912Z,72.97
2024-01-19T00:37:46.278Z,72.85
2024-01-19T00:40:13.410Z,72.41
2024-01-19T00:42:41.641Z,72.49
2024-01-19T00:45:09.991Z,72.07
2024-01-19T00:47:37.092Z,72.93
2024-01-19T00:50:05.917Z,72.90
2024-01-19T00:52:32.593Z,73.08
2024-01-19T00:54:59.215Z,72.55
2024-01-19T00:57:25.923Z,73.13
2024-01-19T00:59:52.701Z,73.02
2024-01-19T01:02:20.589Z,72.67
2024-01-19T01:04:50.141Z,73.39
2024-01-19T01:07:16.833Z,72.45
2024-01-19T01:09:43.557Z,73.25
2024-01-19T01:12:10.327Z,72.89
2024-01-19T01:14:37.133Z,73.38
2024-01-19T01:17:04.097Z,73.26
2024-01-19T01:19:30.930Z,73.20
2024-01-19T01:21:57.672Z,72.80
2024-01-19T01:24:24.438Z,72.78
2024-01-19T01:26:51.223Z,73.21
2024-01-19T01:29:18.122Z,72.61
2024-01-19T01:31:44.934Z,73.02
2024-01-19T01:34:11.686Z,74.16
2024-01-19T01:36:38.433Z,73.56
2024-01-19T01:39:05.279Z,74.21
2024-01-19T01:41:31.982Z,73.21
2024-01-19T01:43:58.648Z,73.57
2024-01-19T01:46:25.787Z,74.12
2024-01-19T01:48:52.898Z,73.30
2024-01-19T01:51:19.789Z,73.64
2024-01-19T01:53:46.685Z,73.54
2024-01-19T01:56:13.615Z,73.38
2024-01-19T01:58:40.688Z,74.07
2024-01-19T02:01:07.603Z,74.30
2024-01-19T02:03:35.793Z,74.22
2024-01-19T02:06:02.960Z,74.35
2024-01-19T02:08:29.893Z,73.90
2024-01-19T02:10:56.750Z,74.52
2024-01-19T02:13:23.519Z,73.31
2024-01-19T02:15:50.095Z,74.11
2024-01-19T02:18:16.924Z,74.07
2024-01-19T02:20:43.714Z,73.30
2024-01-19T02:23:14.753Z,74.78
2024-01-19T02:25:41.547Z,74.28
2024-01-19T02:28:08.677Z,73.59
2024-01-19T02:30:35.903Z,73.14
2024-01-19T02:33:04.021Z,74.17
2024-01-19T02:35:30.786Z,73.42
2024-01-19T02:37:57.681Z,73.37
2024-01-19T02:40:24.372Z,73.59
2024-01-19T02:42:51.020Z,73.41
2024-01-19T02:45:17.757Z,74.33
2024-01-19T02:47:44.541Z,73.56
2024-01-19T02:50:11.420Z,73.37
2024-01-19T02:52:38.187Z,73.60
2024-01-19T02:55:05.988Z,74.06
2024-01-19T02:57:32.697Z,73.37
2024-01-19T03:00:00.546Z,73.26
2024-01-19T03:02:27.470Z,74.17
2024-01-19T03:04:54.268Z,74.26
2024-01-19T03:07:20.964Z,73.88
2024-01-19T03:09:47.788Z,74.44
2024-01-19T03:12:14.514Z,74.11
2024-01-19T03:14:41.908Z,74.20
2024-01-19T03:17:08.526Z,74.23
2024-01-19T03:19:35.349Z,73.70
2024-01-19T03:22:02.041Z,74.46
2024-01-19T03:24:30.470Z,74.63
2024-01-19T03:26:57.162Z,74.21
2024-01-19T03:29:24.621Z,74.00
2024-01-19T03:31:51.379Z,73.87
2024-01-19T03:34:18.050Z,73.69
2024-01-19T03:36:44.683Z,73.50
2024-01-19T03:39:11.422Z,73.59
2024-01-19T03:41:38.126Z,74.42
2024-01-19T03:44:04.865Z,74.59
2024-01-19T03:46:31.582Z,73.54
2024-01-19T03:48:58.263Z,73.73
2024-01-19T03:51:24.896Z,74.64
2024-01-19T03:53:51.981Z,74.44
2024-01-19T03:56:19.779Z,74.21
2024-01-19T03:58:46.429Z,74.84
2024-01-19T04:01:13.435Z,75.23
2024-01-19T04:03:40.766Z,75.05
2024-01-19T04:06:07.641Z,74.05
2024-01-19T04:08:34.512Z,74.42
2024-01-19T04:11:01.202Z,75.27
2024-01-19T04:13:27.869Z,74.53
2024-01-19T04:15:54.484Z,74.87
2024-01-19T04:18:22.010Z,74.84
2024-01-19T04:20:48.718Z,74.65
2024-01-19T04:23:17.480Z,74.34
2024-01-19T04:25:44.292Z,74.59
2024-01-19T04:28:10.954Z,74.83
2024-01-19T04:30:37.565Z,74.32
2024-01-19T04:33:04.530Z,74.64
2024-01-19T04:35:31.221Z,74.52
2024-01-19T04:37:58.084Z,74.26
2024-01-19T04:40:25.035Z,75.46
2024-01-19T04:42:51.705Z,74.96
2024-01-19T04:45:18.374Z,75.15
2024-01-19T04:47:45.143Z,74.51
2024-01-19T04:50:11.809Z,74.76
2024-01-19T04:52:38.459Z,75.45
2024-01-19T04:55:05.433Z,74.25
2024-01-19T04:57:32.108Z,75.50
2024-01-19T04:59:58.836Z,75.19
2024-01-19T05:02:25.933Z,75.25
2024-01-19T05:04:52.734Z,74.04
2024-01-19T05:07:19.507Z,74.43
2024-01-19T05:09:47.158Z,74.33
2024-01-19T05:12:14.050Z,75.54
2024-01-19T05:14:40.693Z,74.51
2024-01-19T05:17:07.354Z,75.27
2024-01-19T05:19:34.063Z,74.32
2024-01-19T05:22:00.793Z,75.87
2024-01-19T05:24:27.401Z,74.84
2024-01-19T05:26:54.298Z,75.49
2024-01-19T05:29:21.056Z,74.67
2024-01-19T05:31:47.745Z,75.50
2024-01-19T05:34:15.656Z,74.43
2024-01-19T05:36:43.193Z,74.92
2024-01-19T05:39:09.912Z,74.70
2024-01-19T05:41:36.605Z,75.70
2024-01-19T05:44:03.346Z,75.10
2024-01-19T05:46:29.991Z,74.88
2024-01-19T05:48:58.363Z,74.64
2024-01-19T05:51:25.706Z,75.55
2024-01-19T05:53:52.445Z,75.61
2024-01-19T05:56:19.155Z,74.38
2024-01-19T05:58:45.840Z,75.57
2024-01-19T06:01:12.813Z,76.01
2024-01-19T06:03:40.095Z,75.53
2024-01-19T06:06:06.992Z,75.68
2024-01-19T06:08:34.053Z,76.06
2024-01-19T06:11:00.845Z,75.21
2024-01-19T06:13:27.548Z,75.97
2024-01-19T06:15:54.306Z,75.99
2024-01-19T06:18:21.051Z,75.35
2024-01-19T06:20:47.811Z,75.15
2024-01-19T06:23:14.894Z,75.72
2024-01-19T06:25:42.045Z,76.05
2024-01-19T06:28:08.897Z,75.34
2024-01-19T06:30:35.671Z,76.02
2024-01-19T06:33:06.656Z,76.02
2024-01-19T06:35:33.729Z,75.23
2024-01-19T06:38:00.587Z,76.29
2024-01-19T06:40:27.370Z,75.08
2024-01-19T06:42:54.154Z,76.18
2024-01-19T06:45:21.146Z,74.88
2024-01-19T06:47:47.996Z,76.06
2024-01-19T06:50:15.625Z,74.87
2024-01-19T06:52:42.246Z,74.90
2024-01-19T06:55:09.402Z,74.99
2024-01-19T06:57:36.048Z,74.92
2024-01-19T07:00:02.997Z,75.42
2024-01-19T07:02:29.666Z,75.85
2024-01-19T07:04:56.293Z,75.36
2024-01-19T07:07:22.953Z,75.80
2024-01-19T07:09:49.673Z,75.78
2024-01-19T07:12:18.319Z,76.06
2024-01-19T07:14:45.238Z,74.82
2024-01-19T07:17:15.381Z,75.18
2024-01-19T07:19:43.488Z,75.44
2024-01-19T07:22:10.538Z,74.51
2024-01-19T07:24:37.613Z,75.98
2024-01-19T07:27:05.893Z,74.96
2024-01-19T07:29:33.088Z,75.38
2024-01-19T07:32:00.991Z,75.14
2024-01-19T07:34:27.897Z,75.84
2024-01-19T07:36:54.705Z,75.45
2024-01-19T07:39:24.901Z,76.19
2024-01-19T07:41:54.708Z,74.88
2024-01-19T07:44:21.657Z,75.20
2024-01-19T07:46:49.477Z,75.37
2024-01-19T07:49:21.998Z,74.93
2024-01-19T07:51:50.257Z,75.99
2024-01-19T07:54:18.878Z,75.56
2024-01-19T07:56:45.651Z,76.15
2024-01-19T07:59:12.388Z,76.76
2024-01-19T08:01:40.547Z,76.24
2024-01-19T08:04:07.322Z,77.17
2024-01-19T08:06:34.233Z,75.77
2024-01-19T08:09:01.042Z,76.24
2024-01-19T08:11:27.817Z,76.54
2024-01-19T08:13:54.436Z,76.43
2024-01-19T08:16:21.196Z,75.72
2024-01-19T08:18:47.999Z,75.80
2024-01-19T08:21:14.817Z,76.18
2024-01-19T08:23:41.479Z,76.46
2024-01-19T08:26:08.366Z,76.48
2024-01-19T08:28:35.149Z,76.26
2024-01-19T08:31:01.842Z,77.26
2024-01-19T08:33:28.680Z,77.43
2024-01-19T08:35:55.463Z,76.47
2024-01-19T08:38:22.107Z,77.27
2024-01-19T08:40:48.894Z,77.98
2024-01-19T08:43:15.733Z,77.69
2024-01-19T08:45:42.696Z,77.31
2024-01-19T08:48:09.736Z,78.71
2024-01-19T08:50:36.596Z,77.88
2024-01-19T08:53:04.193Z,78.34
2024-01-19T08:55:31.026Z,77.84
2024-01-19T08:57:57.738Z,77.30
2024-01-19T09:00:24.435Z,78.01
2024-01-19T09:03:03.706Z,78.51
2024-01-19T09:05:31.937Z,77.77
2024-01-19T09:07:58.983Z,77.84
2024-01-19T09:10:25.781Z,77.68
2024-01-19T09:12:52.569Z,78.11
2024-01-19T09:15:19.359Z,78.81
2024-01-19T09:17:46.135Z,79.34
2024-01-19T09:20:13.332Z,80.13
2024-01-19T09:22:40.261Z,81.26
2024-01-19T09:25:07.382Z,81.88
2024-01-19T09:27:34.395Z,83.33
2024-01-19T09:30:01.275Z,82.66
2024-01-19T09:32:28.222Z,82.74
2024-01-19T09:34:55.072Z,82.50
2024-01-19T09:37:21.798Z,80.29
2024-01-19T09:39:48.447Z,78.50
2024-01-19T09:42:28.242Z,75.99
2024-01-19T09:45:06.791Z,74.55
2024-01-19T09:48:03.149Z,72.98
2024-01-19T09:50:35.982Z,73.77
2024-01-19T09:53:06.198Z,72.40
2024-01-19T09:55:32.994Z,71.29
2024-01-19T09:57:59.646Z,68.34
2024-01-19T10:00:26.715Z,68.21
2024-01-19T10:03:00.093Z,67.27
2024-01-19T10:05:29.013Z,67.03
2024-01-19T10:07:58.940Z,64.45
2024-01-19T10:10:27.311Z,62.85
2024-01-19T10:12:54.126Z,62.56
2024-01-19T10:15:20.934Z,63.14
2024-01-19T10:17:47.838Z,61.12
2024-01-19T10:20:16.582Z,60.52
2024-01-19T10:22:43.658Z,58.47
2024-01-19T10:25:15.143Z,56.55
2024-01-19T10:27:43.404Z,56.95
2024-01-19T10:30:11.371Z,55.38
2024-01-19T10:32:40.377Z,54.75
2024-01-19T10:35:16.090Z,53.99
2024-01-19T10:37:43.323Z,53.35
2024-01-19T10:40:20.359Z,52.46
2024-01-19T10:42:49.497Z,53.26
2024-01-19T10:45:16.627Z,51.68
2024-01-19T10:47:44.866Z,51.67
2024-01-19T10:50:16.046Z,51.44
2024-01-19T10:52:47.555Z,51.68
2024-01-19T10:55:18.540Z,50.96
2024-01-19T10:57:45.548Z,51.83
2024-01-19T11:00:29.497Z,50.28
2024-01-19T11:02:58.386Z,50.60
2024-01-19T11:05:26.077Z,50.79
2024-01-19T11:07:54.335Z,50.86
2024-01-19T11:10:22.100Z,50.99
2024-01-19T11:13:01.214Z,50.01
2024-01-19T11:15:49.083Z,50.02
2024-01-19T11:18:16.435Z,50.79
2024-01-19T11:20:43.462Z,50.72
2024-01-19T11:23:10.669Z,51.22
2024-01-19T11:25:52.700Z,50.60
2024-01-19T11:28:31.052Z,50.97
2024-01-19T11:31:18.704Z,51.47
2024-01-19T11:33:45.671Z,51.67
2024-01-19T11:36:33.454Z,51.74
2024-01-19T11:39:00.481Z,52.36
2024-01-19T11:41:33.972Z,52.28
2024-01-19T11:44:02.145Z,53.02
2024-01-19T11:46:48.358Z,53.25
2024-01-19T11:49:30.575Z,53.48
2024-01-19T11:52:02.732Z,54.28
2024-01-19T11:54:33.434Z,53.40
2024-01-19T11:57:19.990Z,54.46
2024-01-19T11:59:47.513Z,54.71
2024-01-19T12:02:24.639Z,56.00
2024-01-19T12:04:53.053Z,56.45
2024-01-19T12:07:21.573Z,57.03
2024-01-19T12:10:07.798Z,57.64
2024-01-19T12:12:35.282Z,57.01
2024-01-19T12:17:41.600Z,56.78
2024-01-19T12:20:11.151Z,56.07
2024-01-19T12:22:38.451Z,56.47
2024-01-19T12:25:15.122Z,56.96
2024-01-19T12:27:42.079Z,56.10
2024-01-19T12:30:16.837Z,56.34
2024-01-19T12:32:45.060Z,56.41
2024-01-19T12:35:14.707Z,55.74
2024-01-19T12:37:42.469Z,56.08
2024-01-19T12:40:20.089Z,55.56
2024-01-19T12:42:47.120Z,56.36
2024-01-19T12:45:15.468Z,55.80
2024-01-19T12:47:44.116Z,55.23
2024-01-19T12:50:16.808Z,54.83
2024-01-19T12:52:49.190Z,56.11
2024-01-19T12:55:15.847Z,56.02
2024-01-19T12:57:50.367Z,55.41
2024-01-19T13:00:17.774Z,56.68
2024-01-19T13:02:44.688Z,55.81
2024-01-19T13:05:43.832Z,55.29
2024-01-19T13:08:11.533Z,55.51
2024-01-19T13:10:38.978Z,54.86
2024-01-19T13:13:10.930Z,54.44
2024-01-19T13:15:38.395Z,54.63
2024-01-19T13:18:12.601Z,54.07
2024-01-19T13:20:47.102Z,53.87
2024-01-19T13:23:14.261Z,53.19
2024-01-19T13:25:41.146Z,53.24
2024-01-19T13:28:08.194Z,53.31
2024-01-19T13:30:35.380Z,53.35
2024-01-19T13:33:02.879Z,53.48
2024-01-19T13:35:30.399Z,52.79
2024-01-19T13:37:57.868Z,52.81
2024-01-19T13:40:25.132Z,52.61
2024-01-19T13:42:52.703Z,52.43
2024-01-19T13:45:19.576Z,52.25
2024-01-19T13:47:46.266Z,52.21
2024-01-19T13:50:13.115Z,51.58
2024-01-19T13:52:40.635Z,51.97
2024-01-19T13:55:07.896Z,51.93
2024-01-19T13:57:34.666Z,52.36
2024-01-19T14:00:01.267Z,52.13
2024-01-19T14:02:29.121Z,51.79
2024-01-19T14:04:57.947Z,52.01
2024-01-19T14:07:25.993Z,52.30
2024-01-19T14:09:53.258Z,52.36
2024-01-19T14:12:20.355Z,52.51
2024-01-19T14:14:48.946Z,52.57
2024-01-19T14:17:15.787Z,52.66
2024-01-19T14:19:42.746Z,52.27
2024-01-19T14:22:09.502Z,52.10
2024-01-19T14:24:36.312Z,52.16
2024-01-19T14:27:03.465Z,52.19
2024-01-19T14:29:32.342Z,52.88
2024-01-19T14:32:01.636Z,52.56
2024-01-19T14:34:36.014Z,52.59
2024-01-19T14:37:11.307Z,52.52
2024-01-19T14:39:40.799Z,52.35
2024-01-19T14:42:07.646Z,52.41
2024-01-19T14:44:34.350Z,52.18
2024-01-19T14:47:01.905Z,52.56
2024-01-19T14:49:33.948Z,52.18
2024-01-19T14:52:01.672Z,52.91
2024-01-19T14:54:31.292Z,52.85
2024-01-19T14:56:58.711Z,52.48
2024-01-19T14:59:25.317Z,53.22
2024-01-19T15:01:53.180Z,52.37
2024-01-19T15:04:20.038Z,53.13
2024-01-19T15:06:47.124Z,52.77
2024-01-19T15:09:13.782Z,53.01
2024-01-19T15:11:40.477Z,52.83
2024-01-19T15:14:07.209Z,53.29
2024-01-19T15:16:34.015Z,52.82
2024-01-19T15:19:01.336Z,53.20
2024-01-19T15:21:28.472Z,53.57
2024-01-19T15:23:55.419Z,54.04
2024-01-19T15:26:22.201Z,53.60
2024-01-19T15:28:49.342Z,53.86
2024-01-19T15:31:21.360Z,53.74
2024-01-19T15:33:48.258Z,54.17
2024-01-19T15:36:15.037Z,54.66
2024-01-19T15:38:41.724Z,54.71
2024-01-19T15:41:08.515Z,54.86
2024-01-19T15:43:36.285Z,54.72
2024-01-19T15:46:03.133Z,54.75
2024-01-19T15:48:29.810Z,55.33
2024-01-19T15:50:56.496Z,55.68
2024-01-19T15:53:24.013Z,55.48
2024-01-19T15:55:50.621Z,55.47
2024-01-19T15:58:17.497Z,56.05
2024-01-19T16:00:44.187Z,55.76
2024-01-19T16:03:13.025Z,56.13
2024-01-19T16:05:40.181Z,56.84
2024-01-19T16:08:07.180Z,56.96
2024-01-19T16:10:33.939Z,57.25
2024-01-19T16:13:00.724Z,57.57
2024-01-19T16:15:27.417Z,57.11
2024-01-19T16:17:54.238Z,56.75
2024-01-19T16:20:20.989Z,57.85
2024-01-19T16:22:47.819Z,57.31
2024-01-19T16:25:14.501Z,57.52
2024-01-19T16:27:41.151Z,58.58
2024-01-19T16:30:07.971Z,57.98
2024-01-19T16:32:34.625Z,58.20
2024-01-19T16:35:01.485Z,58.67
2024-01-19T16:37:28.382Z,59.09
2024-01-19T16:39:55.095Z,59.52
2024-01-19T16:42:21.764Z,59.32
2024-01-19T16:44:48.447Z,59.87
2024-01-19T16:47:15.147Z,59.57
2024-01-19T16:49:41.820Z,59.23
2024-01-19T16:52:08.683Z,59.68
2024-01-19T16:54:35.325Z,60.03
2024-01-19T16:57:06.825Z,61.17
2024-01-19T16:59:36.327Z,60.31
2024-01-19T17:02:03.085Z,61.27
2024-01-19T17:04:30.677Z,60.84
2024-01-19T17:06:57.394Z,61.83
2024-01-19T17:09:24.083Z,61.01
2024-01-19T17:11:51.493Z,61.44
2024-01-19T17:14:18.284Z,60.98
2024-01-19T17:16:45.578Z,60.84
2024-01-19T17:19:13.344Z,62.02
2024-01-19T17:21:41.411Z,61.75
2024-01-19T17:24:09.288Z,61.26
2024-01-19T17:26:40.420Z,61.81
2024-01-19T17:29:07.242Z,62.09
2024-01-19T17:31:34.761Z,62.65
2024-01-19T17:34:08.472Z,62.11
2024-01-19T17:36:37.819Z,62.18
2024-01-19T17:39:05.497Z,61.95
2024-01-19T17:41:32.438Z,62.84
2024-01-19T17:43:59.893Z,62.38
2024-01-19T17:46:27.346Z,62.28
2024-01-19T17:48:54.265Z,63.24
2024-01-19T17:51:22.290Z,63.79
2024-01-19T17:53:50.807Z,63.03
2024-01-19T17:56:17.644Z,63.62
2024-01-19T17:58:44.656Z,63.08
2024-01-19T18:01:11.425Z,63.02
2024-01-19T18:03:40.026Z,63.92
2024-01-19T18:06:08.149Z,63.59
2024-01-19T18:08:35.424Z,63.68
2024-01-19T18:11:03.575Z,63.46
2024-01-19T18:13:30.877Z,64.09
2024-01-19T18:15:58.311Z,63.90
2024-01-19T18:18:31.523Z,64.25
2024-01-19T18:21:02.449Z,64.06
2024-01-19T18:23:29.201Z,63.67
2024-01-19T18:25:56.098Z,64.62
2024-01-19T18:28:23.839Z,63.71
2024-01-19T18:30:54.105Z,63.62
2024-01-19T18:33:21.278Z,64.12
2024-01-19T18:35:48.487Z,65.13
2024-01-19T18:38:15.453Z,65.53
2024-01-19T18:40:42.398Z,64.91
2024-01-19T18:43:09.089Z,65.18
2024-01-19T18:45:35.890Z,66.10
2024-01-19T18:48:05.501Z,66.28
2024-01-19T18:50:32.958Z,66.76
2024-01-19T18:53:00.409Z,65.94
2024-01-19T18:55:27.708Z,66.83
2024-01-19T18:57:54.630Z,66.84
2024-01-19T19:00:22.205Z,66.83
2024-01-19T19:02:50.082Z,66.77
2024-01-19T19:05:16.902Z,66.10
2024-01-19T19:07:44.685Z,66.23
2024-01-19T19:10:11.552Z,65.92
2024-01-19T19:12:38.724Z,66.69
2024-01-19T19:15:07.673Z,66.76
2024-01-19T19:17:36.287Z,66.74
2024-01-19T19:20:03.689Z,66.63
2024-01-19T19:22:30.402Z,66.41
2024-01-19T19:24:57.117Z,66.89
2024-01-19T19:27:23.787Z,66.92
2024-01-19T19:29:51.004Z,66.93
2024-01-19T19:32:17.789Z,67.20
2024-01-19T19:34:46.506Z,66.31
2024-01-19T19:37:13.333Z,66.80
2024-01-19T19:39:40.023Z,66.35
2024-01-19T19:42:06.868Z,66.94
2024-01-19T19:44:34.876Z,66.61
2024-01-19T19:47:01.669Z,66.36
2024-01-19T19:49:28.383Z,66.84
2024-01-19T19:51:56.551Z,67.15
2024-01-19T19:54:24.191Z,67.46
2024-01-19T19:56:50.882Z,67.79
2024-01-19T19:59:17.652Z,67.25
2024-01-19T20:01:48.182Z,67.62
2024-01-19T20:04:15.969Z,68.24
2024-01-19T20:06:42.790Z,67.30
2024-01-19T20:09:09.792Z,67.30
2024-01-19T20:11:37.722Z,68.01
2024-01-19T20:14:05.005Z,67.42
2024-01-19T20:16:31.998Z,67.84
2024-01-19T20:18:59.310Z,68.17
2024-01-19T20:21:26.364Z,68.06
2024-01-19T20:23:53.546Z,68.58
2024-01-19T20:26:20.863Z,68.49
2024-01-19T20:28:48.378Z,68.60
2024-01-19T20:31:15.237Z,68.25
2024-01-19T20:33:42.814Z,68.65
2024-01-19T20:36:09.828Z,68.52
2024-01-19T20:38:37.458Z,68.85
2024-01-19T20:41:04.521Z,68.79
2024-01-19T20:43:31.452Z,68.75
2024-01-19T20:45:58.184Z,69.00
2024-01-19T20:48:24.956Z,68.89
2024-01-19T20:50:51.706Z,69.23
2024-01-19T20:53:18.452Z,69.20
2024-01-19T20:55:47.063Z,69.68
2024-01-19T20:58:13.968Z,69.40
2024-01-19T21:00:41.452Z,69.32
2024-01-19T21:03:10.451Z,69.40
2024-01-19T21:05:38.173Z,69.25
2024-01-19T21:08:05.702Z,69.37
2024-01-19T21:10:33.465Z,69.50
2024-01-19T21:13:00.263Z,69.06
2024-01-19T21:15:28.067Z,69.55
2024-01-19T21:17:55.265Z,68.97
2024-01-19T21:20:24.137Z,69.60
2024-01-19T21:22:52.865Z,69.19
2024-01-19T21:25:21.697Z,69.56
2024-01-19T21:27:48.622Z,69.66
2024-01-19T21:30:15.429Z,69.47
2024-01-19T21:32:42.189Z,69.66
2024-01-19T21:35:10.020Z,69.60
2024-01-19T21:37:36.920Z,69.62
2024-01-19T21:40:05.627Z,69.66
2024-01-19T21:42:32.754Z,69.90
2024-01-19T21:45:00.154Z,69.56
2024-01-19T21:47:26.991Z,69.72
2024-01-19T21:49:54.340Z,69.67
2024-01-19T21:52:22.613Z,70.10
2024-01-19T21:54:50.240Z,69.44
2024-01-19T21:57:17.100Z,69.88
2024-01-19T21:59:43.953Z,69.59
2024-01-19T22:02:11.290Z,70.13
2024-01-19T22:04:38.654Z,69.81
2024-01-19T22:07:06.813Z,70.09
2024-01-19T22:09:33.858Z,70.07
2024-01-19T22:12:00.744Z,69.57
2024-01-19T22:14:28.267Z,69.59
2024-01-19T22:16:55.269Z,69.49
2024-01-19T22:19:22.737Z,69.96
2024-01-19T22:21:50.379Z,69.68
2024-01-19T22:24:17.305Z,70.30
2024-01-19T22:26:45.157Z,70.16
2024-01-19T22:29:13.100Z,69.98
2024-01-19T22:31:40.433Z,70.36
2024-01-19T22:34:09.404Z,70.24
2024-01-19T22:36:38.638Z,70.21
2024-01-19T22:39:05.443Z,70.29
2024-01-19T22:41:32.645Z,70.41
2024-01-19T22:44:00.154Z,70.07
2024-01-19T22:46:27.774Z,70.15
2024-01-19T22:48:54.787Z,70.29
2024-01-19T22:51:21.874Z,70.20
2024-01-19T22:53:50.264Z,70.27
2024-01-19T22:56:17.155Z,69.95
2024-01-19T22:58:44.307Z,70.13
2024-01-19T23:01:11.474Z,70.43
2024-01-19T23:03:38.333Z,69.72
2024-01-19T23:06:05.483Z,69.98
2024-01-19T23:08:32.205Z,69.77
2024-01-19T23:10:59.354Z,70.54
2024-01-19T23:13:26.368Z,70.02
2024-01-19T23:15:53.537Z,70.00
2024-01-19T23:18:21.177Z,69.84
2024-01-19T23:20:48.150Z,69.72
2024-01-19T23:23:15.270Z,69.61
2024-01-19T23:25:42.391Z,69.99
2024-01-19T23:28:10.645Z,69.44
2024-01-19T23:30:38.497Z,69.73
2024-01-19T23:33:05.973Z,69.88
2024-01-19T23:35:33.146Z,69.97
2024-01-19T23:38:00.361Z,70.37
2024-01-19T23:40:27.751Z,70.31
2024-01-19T23:42:56.422Z,69.78
2024-01-19T23:45:26.101Z,69.65
2024-01-19T23:47:55.267Z,69.97
2024-01-19T23:50:22.904Z,69.70
2024-01-19T23:52:50.100Z,70.34
2024-01-19T23:55:17.630Z,70.13
2024-01-19T23:57:45.478Z,70.07
